createdAt,value
2023-01-20T00:00:47.321Z,62.16
2023-01-20T00:05:52.438Z,60.70
2023-01-20T00:10:56.125Z,59.13
2023-01-20T00:15:59.445Z,57.88
2023-01-20T00:21:08.109Z,57.14
2023-01-20T00:26:17.338Z,57.34
2023-01-20T00:31:26.010Z,57.57
2023-01-20T00:36:31.888Z,58.00
2023-01-20T00:41:35.739Z,59.25
2023-01-20T00:46:39.268Z,61.52
2023-01-20T00:51:42.351Z,65.27
2023-01-20T00:56:45.918Z,66.88
2023-01-20T01:01:49.896Z,68.21
2023-01-20T01:06:53.453Z,68.72
2023-01-20T01:11:56.823Z,68.99
2023-01-20T01:17:00.519Z,68.98
2023-01-20T01:22:03.600Z,68.88
2023-01-20T01:27:07.541Z,68.79
2023-01-20T01:32:10.823Z,68.20
2023-01-20T01:37:13.853Z,68.47
2023-01-20T01:42:20.645Z,68.37
2023-01-20T01:47:24.495Z,68.37
2023-01-20T01:52:28.444Z,69.20
2023-01-20T01:57:33.154Z,68.46
2023-01-20T02:02:36.700Z,68.92
2023-01-20T02:07:40.978Z,69.63
2023-01-20T02:12:49.706Z,69.35
2023-01-20T02:18:41.697Z,68.63
2023-01-20T02:24:18.825Z,68.92
2023-01-20T02:29:21.785Z,69.92
2023-01-20T02:34:32.607Z,69.34
2023-01-20T02:39:47.642Z,68.71
2023-01-20T02:45:20.817Z,65.91
2023-01-20T02:50:32.907Z,62.36
2023-01-20T02:55:44.946Z,60.41
2023-01-20T03:00:55.014Z,57.15
2023-01-20T03:06:03.059Z,55.17
2023-01-20T03:11:09.472Z,55.08
2023-01-20T03:16:19.845Z,54.25
2023-01-20T03:21:23.773Z,53.47
2023-01-20T03:26:26.919Z,54.29
2023-01-20T03:31:36.456Z,53.73
2023-01-20T03:36:42.315Z,53.12
2023-01-20T03:42:09.158Z,53.52
2023-01-20T03:47:20.979Z,53.58
2023-01-20T03:52:47.017Z,54.25
2023-01-20T03:58:04.193Z,55.00
2023-01-20T04:03:13.606Z,55.94
2023-01-20T04:08:18.502Z,58.43
2023-01-20T04:13:21.969Z,62.61
2023-01-20T04:18:25.310Z,62.32
2023-01-20T04:23:41.101Z,62.68
2023-01-20T04:28:44.116Z,62.42
2023-01-20T04:33:47.748Z,60.04
2023-01-20T04:38:50.869Z,53.62
2023-01-20T04:43:54.454Z,48.98
2023-01-20T04:48:57.507Z,57.82
2023-01-20T04:54:16.391Z,58.94
2023-01-20T04:59:20.613Z,58.67
2023-01-20T05:04:23.752Z,54.85
2023-01-20T05:09:26.878Z,52.66
2023-01-20T05:14:29.932Z,50.96
2023-01-20T05:19:33.495Z,50.88
2023-01-20T05:24:37.595Z,52.23
2023-01-20T05:29:40.692Z,53.78
2023-01-20T05:34:43.984Z,55.14
2023-01-20T05:39:47.718Z,58.04
2023-01-20T05:44:50.780Z,61.13
2023-01-20T05:49:53.878Z,63.23
2023-01-20T05:54:56.954Z,64.06
2023-01-20T06:00:00.442Z,63.53
2023-01-20T06:05:04.357Z,63.26
2023-01-20T06:10:09.008Z,62.29
2023-01-20T06:15:12.377Z,62.14
2023-01-20T06:20:16.206Z,64.59
2023-01-20T06:25:19.767Z,65.26
2023-01-20T06:30:22.878Z,65.68
2023-01-20T06:35:26.033Z,65.29
2023-01-20T06:40:29.188Z,65.03
2023-01-20T06:45:32.214Z,64.43
2023-01-20T06:50:35.273Z,62.41
2023-01-20T06:55:38.393Z,62.92
2023-01-20T07:00:42.329Z,62.56
2023-01-20T07:06:01.468Z,62.69
2023-01-20T07:11:05.175Z,62.12
2023-01-20T07:16:11.021Z,61.67
2023-01-20T07:21:15.749Z,51.92
2023-01-20T07:26:21.112Z,45.72
2023-01-20T07:31:26.938Z,43.59
2023-01-20T07:36:30.106Z,43.24
2023-01-20T07:41:34.339Z,43.13
2023-01-20T07:46:38.358Z,41.93
2023-01-20T07:51:43.591Z,39.91
2023-01-20T07:56:47.344Z,39.35
2023-01-20T08:01:50.754Z,39.05
2023-01-20T08:06:54.139Z,39.26
2023-01-20T08:11:58.013Z,39.50
2023-01-20T08:17:01.909Z,39.21
2023-01-20T08:22:05.480Z,40.49
2023-01-20T08:27:08.660Z,42.53
2023-01-20T08:32:12.283Z,42.16
2023-01-20T08:37:15.829Z,42.91
2023-01-20T08:42:19.717Z,41.34
2023-01-20T08:47:24.168Z,38.33
2023-01-20T08:52:28.916Z,38.52
2023-01-20T08:57:33.320Z,36.50
2023-01-20T09:02:37.968Z,37.08
2023-01-20T09:07:41.745Z,37.50
2023-01-20T09:12:46.061Z,37.35
2023-01-20T09:17:49.733Z,38.80
2023-01-20T09:22:53.335Z,39.44
2023-01-20T09:28:00.368Z,40.01
2023-01-20T09:33:04.042Z,41.44
2023-01-20T09:38:26.315Z,39.34
2023-01-20T09:43:57.295Z,41.52
2023-01-20T09:49:50.934Z,43.19
2023-01-20T09:55:04.005Z,46.48
2023-01-20T10:00:17.651Z,46.90
2023-01-20T10:05:26.257Z,50.55
2023-01-20T10:10:41.346Z,47.80
2023-01-20T10:15:50.520Z,47.19
2023-01-20T10:21:22.492Z,50.15
2023-01-20T10:26:53.915Z,54.11
2023-01-20T10:32:01.843Z,60.07
2023-01-20T10:37:11.598Z,65.52
2023-01-20T10:42:18.051Z,74.57
2023-01-20T10:47:39.441Z,74.21
2023-01-20T10:52:43.204Z,77.47
2023-01-20T10:57:56.153Z,76.51
2023-01-20T11:03:02.370Z,78.42
2023-01-20T11:08:17.032Z,80.56
2023-01-20T11:13:20.294Z,84.20
2023-01-20T11:18:28.263Z,81.45
2023-01-20T11:23:56.081Z,81.17
2023-01-20T11:29:00.637Z,80.18
2023-01-20T11:34:31.600Z,80.19
2023-01-20T11:39:51.822Z,80.72
2023-01-20T11:45:20.398Z,77.55
2023-01-20T11:50:47.706Z,76.99
2023-01-20T11:55:53.954Z,76.24
2023-01-20T12:01:30.456Z,75.87
2023-01-20T12:07:00.952Z,75.62
2023-01-20T12:12:07.564Z,72.09
2023-01-20T12:17:26.116Z,72.46
2023-01-20T12:22:53.957Z,72.33
2023-01-20T12:28:05.625Z,69.86
2023-01-20T12:33:21.012Z,66.76
2023-01-20T12:38:25.359Z,64.73
2023-01-20T12:43:51.285Z,64.54
2023-01-20T12:49:22.007Z,64.49
2023-01-20T12:54:50.805Z,65.15
2023-01-20T13:00:00.059Z,63.79
2023-01-20T13:05:13.301Z,63.98
2023-01-20T13:10:32.408Z,63.89
2023-01-20T13:15:59.670Z,63.28
2023-01-20T13:21:12.965Z,61.11
2023-01-20T13:26:17.625Z,62.56
2023-01-20T13:31:44.702Z,62.57
2023-01-20T13:37:03.885Z,62.16
2023-01-20T13:42:38.061Z,62.78
2023-01-20T13:48:06.598Z,64.29
2023-01-20T13:53:21.613Z,65.48
2023-01-20T13:58:33.843Z,66.85
2023-01-20T14:03:40.271Z,65.11
2023-01-20T14:08:47.788Z,63.76
2023-01-20T14:13:55.307Z,64.13
2023-01-20T14:19:01.557Z,63.86
2023-01-20T14:24:05.203Z,70.94
2023-01-20T14:29:20.410Z,76.85
2023-01-20T14:34:32.451Z,81.32
2023-01-20T14:39:35.856Z,84.81
2023-01-20T14:44:39.440Z,86.47
2023-01-20T14:49:44.002Z,88.28
2023-01-20T14:54:49.931Z,89.64
2023-01-20T15:00:18.913Z,90.99
2023-01-20T15:05:34.933Z,90.66
2023-01-20T15:10:40.833Z,92.04
2023-01-20T15:15:45.140Z,92.72
2023-01-20T15:21:15.689Z,93.56
2023-01-20T15:26:28.932Z,93.84
2023-01-20T15:31:32.626Z,94.29
2023-01-20T15:36:42.612Z,95.25
2023-01-20T15:41:47.853Z,95.45
2023-01-20T15:46:52.383Z,95.99
2023-01-20T15:51:57.135Z,95.77
2023-01-20T15:57:00.495Z,95.11
2023-01-20T16:02:04.360Z,95.74
2023-01-20T16:07:19.302Z,95.87
2023-01-20T16:12:22.371Z,95.48
2023-01-20T16:17:30.891Z,95.45
2023-01-20T16:22:34.536Z,96.05
2023-01-20T16:27:37.897Z,95.93
2023-01-20T16:32:41.515Z,96.66
2023-01-20T16:37:46.887Z,96.33
2023-01-20T16:42:51.194Z,95.07
2023-01-20T16:47:54.693Z,95.33
2023-01-20T16:52:58.356Z,95.28
2023-01-20T16:58:01.603Z,94.40
2023-01-20T17:03:05.389Z,94.24
2023-01-20T17:08:10.664Z,94.22
2023-01-20T17:13:15.220Z,94.36
2023-01-20T17:18:18.247Z,95.35
2023-01-20T17:23:22.150Z,92.90
2023-01-20T17:28:26.440Z,90.93
2023-01-20T17:33:30.450Z,89.55
2023-01-20T17:38:36.248Z,89.36
2023-01-20T17:43:42.168Z,88.26
2023-01-20T17:48:46.552Z,87.71
2023-01-20T17:53:51.149Z,86.37
2023-01-20T17:58:54.987Z,87.12
2023-01-20T18:04:00.441Z,85.95
2023-01-20T18:09:06.111Z,85.42
2023-01-20T18:14:12.004Z,85.22
2023-01-20T18:19:17.042Z,84.56
2023-01-20T18:24:20.962Z,84.78
2023-01-20T18:29:24.724Z,85.23
2023-01-20T18:34:30.443Z,84.48
2023-01-20T18:39:36.952Z,82.95
2023-01-20T18:44:41.414Z,82.32
2023-01-20T18:49:44.566Z,81.24
2023-01-20T18:54:48.079Z,82.50
2023-01-20T18:59:51.106Z,82.91
2023-01-20T19:04:54.573Z,82.11
2023-01-20T19:09:57.724Z,82.72
2023-01-20T19:15:01.840Z,81.71
2023-01-20T19:20:05.917Z,82.48
2023-01-20T19:25:09.469Z,84.21
2023-01-20T19:30:13.431Z,84.46
2023-01-20T19:35:17.116Z,84.81
2023-01-20T19:40:20.218Z,84.18
2023-01-20T19:45:26.953Z,84.22
2023-01-20T19:50:33.075Z,84.38
2023-01-20T19:55:36.523Z,85.04
2023-01-20T20:00:40.626Z,83.19
2023-01-20T20:05:44.285Z,80.71
2023-01-20T20:10:48.490Z,78.08
2023-01-20T20:16:03.437Z,77.27
2023-01-20T20:21:08.564Z,77.98
2023-01-20T20:26:13.373Z,75.90
2023-01-20T20:31:17.058Z,75.33
2023-01-20T20:36:20.899Z,75.90
2023-01-20T20:41:26.779Z,76.34
2023-01-20T20:46:30.664Z,77.26
2023-01-20T20:51:35.619Z,78.71
2023-01-20T20:56:39.000Z,78.80
2023-01-20T21:01:42.146Z,78.80
2023-01-20T21:06:45.632Z,79.09
2023-01-20T21:11:49.168Z,80.25
2023-01-20T21:16:52.325Z,80.86
2023-01-20T21:21:56.039Z,81.58
2023-01-20T21:27:00.940Z,81.95
2023-01-20T21:32:04.175Z,83.09
2023-01-20T21:37:08.925Z,83.57
2023-01-20T21:42:11.972Z,84.60
2023-01-20T21:47:15.847Z,84.19
2023-01-20T21:52:42.999Z,84.38
2023-01-20T21:57:48.415Z,84.90
2023-01-20T22:02:53.665Z,84.44
2023-01-20T22:07:57.086Z,85.11
2023-01-20T22:13:00.433Z,85.18
2023-01-20T22:18:04.598Z,85.12
2023-01-20T22:23:07.806Z,84.50
2023-01-20T22:28:11.721Z,83.75
2023-01-20T22:33:15.561Z,83.19
2023-01-20T22:38:19.507Z,83.31
2023-01-20T22:43:22.786Z,83.62
2023-01-20T22:48:26.076Z,83.20
2023-01-20T22:53:29.734Z,83.27
2023-01-20T22:58:33.418Z,84.73
2023-01-20T23:03:37.006Z,85.39
2023-01-20T23:08:41.294Z,85.75
2023-01-20T23:13:45.870Z,84.43
2023-01-20T23:18:50.773Z,83.64
2023-01-20T23:23:57.067Z,81.87
2023-01-20T23:29:00.419Z,81.13
2023-01-20T23:34:04.408Z,80.19
2023-01-20T23:39:07.595Z,81.12
2023-01-20T23:44:11.408Z,80.95
2023-01-20T23:49:14.942Z,79.87
2023-01-20T23:54:18.151Z,79.24
2023-01-20T23:59:21.802Z,80.15
